Time;durP1;ratioP1;P1;durP2;ratioP2;P2;SDS_P1;SDS_P2;PMS_P1;PMS_P2;Temp;Humidity;BMP_temperature;BMP_pressure;BME280_temperature;BME280_humidity;BME280_pressure;Samples;Min_cycle;Max_cycle;Signal;HPM_P1;HPM_P2
2023/03/20 00:01:23;;;;;;;4.10;0.50;;;;;;;10.66;65.71;100748.13;5055941;28;20037;-66
2023/03/20 00:03:50;;;;;;;3.80;0.57;;;;;;;10.64;65.61;100744.63;5055411;28;20026;-66
2023/03/20 00:06:17;;;;;;;3.72;0.60;;;;;;;10.63;66.03;100741.09;5038787;28;20041;-66
2023/03/20 00:08:47;;;;;;;4.28;0.70;;;;;;;10.64;65.45;100741.97;5038725;28;20134;-66
2023/03/20 00:11:29;;;;;;;5.78;0.68;;;;;;;10.62;66.03;100741.97;5038579;28;20069;-66
2023/03/20 00:14:09;;;;;;;5.15;0.70;;;;;;;10.59;66.03;100747.22;5038700;28;20499;-66
2023/03/20 00:16:41;;;;;;;3.10;0.50;;;;;;;10.55;66.27;100740.19;5038677;28;20067;-66
2023/03/20 00:19:16;;;;;;;3.88;0.55;;;;;;;10.56;66.34;100739.31;5038664;28;20029;-65
2023/03/20 00:21:42;;;;;;;3.60;0.52;;;;;;;10.54;66.03;100737.53;5038712;28;20032;-66
2023/03/20 00:24:07;;;;;;;5.30;0.50;;;;;;;10.51;66.51;100743.69;5038417;28;20033;-65
2023/03/20 00:26:35;;;;;;;4.37;0.67;;;;;;;10.49;66.42;100745.44;5038324;28;20033;-66
2023/03/20 00:29:03;;;;;;;9.48;0.85;;;;;;;10.47;66.51;100737.53;5038521;28;20834;-66
2023/03/20 00:31:31;;;;;;;5.93;0.50;;;;;;;10.46;66.42;100734.88;5071364;28;20033;-66
2023/03/20 00:34:02;;;;;;;4.60;0.60;;;;;;;10.46;66.80;100734.88;5044233;28;20060;-66
2023/03/20 00:36:28;;;;;;;3.83;0.52;;;;;;;10.41;66.61;100736.59;5038210;28;20030;-66
2023/03/20 00:38:56;;;;;;;4.53;0.60;;;;;;;10.44;66.79;100736.63;5038503;28;20041;-66
2023/03/20 00:41:41;;;;;;;5.97;0.63;;;;;;;10.42;66.68;100738.38;5038143;28;20026;-65
2023/03/20 00:44:06;;;;;;;4.97;0.55;;;;;;;10.40;67.10;100740.09;5038094;28;20029;-66
2023/03/20 00:46:37;;;;;;;5.33;0.70;;;;;;;10.39;67.29;100739.22;5037795;28;20089;-65
2023/03/20 00:49:02;;;;;;;4.35;0.52;;;;;;;10.38;67.10;100736.56;5037850;28;20111;-65
2023/03/20 00:51:28;;;;;;;4.03;0.53;;;;;;;10.37;67.29;100737.44;5037821;28;20493;-66
2023/03/20 00:53:54;;;;;;;3.97;0.85;;;;;;;10.34;67.27;100725.13;5037903;28;20505;-66
2023/03/20 00:56:33;;;;;;;2.87;0.60;;;;;;;10.33;67.39;100732.16;5037579;28;20025;-66
2023/03/20 00:59:01;;;;;;;4.75;0.50;;;;;;;10.34;67.32;100719.88;5037809;28;20029;-66
2023/03/20 01:01:27;;;;;;;6.30;0.80;;;;;;;10.36;67.28;100722.53;5057480;28;20021;-66
2023/03/20 01:03:52;;;;;;;7.35;0.60;;;;;;;10.38;67.30;100721.66;5053625;28;20036;-65
2023/03/20 01:06:18;;;;;;;6.03;0.40;;;;;;;10.39;67.52;100714.63;5037809;28;20029;-65
2023/03/20 01:08:43;;;;;;;2.93;0.40;;;;;;;10.38;67.75;100713.78;5037546;28;20033;-66
2023/03/20 01:11:11;;;;;;;4.53;0.50;;;;;;;10.38;67.45;100710.25;5037454;28;20056;-65
2023/03/20 01:13:39;;;;;;;4.65;0.40;;;;;;;10.40;67.70;100708.50;5037509;28;20034;-65
2023/03/20 01:16:05;;;;;;;3.72;0.50;;;;;;;10.42;67.44;100699.78;5037449;28;20048;-65
2023/03/20 01:18:30;;;;;;;3.42;0.40;;;;;;;10.45;67.52;100701.50;5037128;28;20025;-66
2023/03/20 01:20:56;;;;;;;3.47;0.50;;;;;;;10.43;67.30;100693.63;5037431;28;20112;-66
2023/03/20 01:23:25;;;;;;;6.27;0.40;;;;;;;10.43;67.63;100692.72;5037081;28;20103;-66
2023/03/20 01:25:51;;;;;;;3.90;0.40;;;;;;;10.41;67.36;100686.59;5036083;28;20064;-65
2023/03/20 01:28:18;;;;;;;4.07;0.60;;;;;;;10.39;67.58;100685.66;5039547;28;20033;-65
2023/03/20 01:30:45;;;;;;;5.60;0.50;;;;;;;10.36;67.93;100686.53;5039902;28;20397;-66
2023/03/20 01:33:13;;;;;;;4.07;0.60;;;;;;;10.32;67.80;100683.03;5037089;28;20047;-65
2023/03/20 01:35:39;;;;;;;7.25;0.60;;;;;;;10.33;67.95;100682.16;5036052;28;20057;-66
2023/03/20 01:38:23;;;;;;;5.45;0.93;;;;;;;10.34;67.82;100672.47;5037016;28;20072;-65
2023/03/20 01:40:57;;;;;;;4.15;0.60;;;;;;;10.29;67.67;100669.84;5037107;28;20025;-65
2023/03/20 01:43:24;;;;;;;5.87;0.60;;;;;;;10.22;68.08;100673.31;5036787;28;20029;-66
2023/03/20 01:46:13;;;;;;;4.38;0.50;;;;;;;10.18;68.34;100676.81;5037293;28;20492;-66
2023/03/20 01:48:51;;;;;;;7.05;1.00;;;;;;;10.13;68.27;100668.03;5036934;28;20087;-66
2023/03/20 01:51:34;;;;;;;7.38;0.60;;;;;;;10.05;68.45;100666.25;5036756;28;20029;-66
2023/03/20 01:54:02;;;;;;;6.72;0.77;;;;;;;10.01;68.17;100653.97;5036857;28;20033;-66
2023/03/20 01:56:33;;;;;;;6.07;0.70;;;;;;;9.98;68.18;100658.31;5036559;28;20537;-66
2023/03/20 01:59:05;;;;;;;4.03;0.60;;;;;;;9.97;68.40;100659.19;5036299;28;20108;-65
2023/03/20 02:01:34;;;;;;;6.22;0.60;;;;;;;9.94;68.21;100659.19;5024379;28;20478;-66
2023/03/20 02:04:00;;;;;;;4.82;0.73;;;;;;;9.90;68.65;100658.28;5036677;28;20025;-65
2023/03/20 02:06:25;;;;;;;4.10;0.60;;;;;;;9.84;68.58;100655.63;5036691;28;20078;-65
2023/03/20 02:08:52;;;;;;;8.73;0.50;;;;;;;9.75;68.48;100652.06;5036527;28;20056;-65
2023/03/20 02:11:21;;;;;;;5.65;0.70;;;;;;;9.68;68.94;100647.63;5036329;28;20433;-66
2023/03/20 02:13:48;;;;;;;5.60;0.77;;;;;;;9.62;69.16;100655.50;5036678;28;20033;-65
2023/03/20 02:16:16;;;;;;;4.20;0.52;;;;;;;9.59;69.05;100650.22;5036681;28;20018;-65
2023/03/20 02:18:47;;;;;;;4.28;0.57;;;;;;;9.54;69.21;100646.69;5036309;28;20410;-65
2023/03/20 02:21:37;;;;;;;3.63;0.60;;;;;;;9.47;69.66;100649.25;5036783;28;20025;-66
2023/03/20 02:24:21;;;;;;;4.47;0.60;;;;;;;9.43;69.25;100647.47;5037575;28;20025;-65
2023/03/20 02:26:56;;;;;;;3.47;0.60;;;;;;;9.39;69.46;100647.44;5050873;28;20025;-66
2023/03/20 02:30:03;;;;;;;4.25;0.68;;;;;;;9.36;69.80;100652.69;5049442;28;20020;-65
2023/03/20 02:32:38;;;;;;;4.32;0.70;;;;;;;9.32;69.68;100654.44;5028554;28;20531;-65
2023/03/20 02:35:31;;;;;;;5.22;0.45;;;;;;;9.29;69.90;100651.78;5036394;28;20096;-65
2023/03/20 02:38:15;;;;;;;5.22;0.60;;;;;;;9.22;70.07;100656.09;5036359;28;20037;-65
2023/03/20 02:41:05;;;;;;;6.07;0.80;;;;;;;9.19;69.92;100645.56;5036476;28;20049;-66
2023/03/20 02:43:52;;;;;;;6.70;0.68;;;;;;;9.15;70.08;100655.16;5036308;28;20056;-66
2023/03/20 02:46:17;;;;;;;5.07;0.50;;;;;;;9.13;69.90;100643.78;5036099;28;20051;-66
2023/03/20 02:49:21;;;;;;;4.20;0.60;;;;;;;9.10;70.26;100649.00;5036448;28;20030;-66
2023/03/20 02:52:04;;;;;;;4.97;0.60;;;;;;;9.09;69.98;100649.88;5011443;28;20037;-66
2023/03/20 02:54:44;;;;;;;7.00;1.05;;;;;;;9.13;70.04;100650.75;5036200;28;20409;-66
2023/03/20 02:57:34;;;;;;;8.53;2.40;;;;;;;9.13;69.85;100649.03;5036273;28;20108;-66
2023/03/20 03:00:18;;;;;;;9.00;1.42;;;;;;;9.08;69.97;100648.09;5033555;28;20055;-66
2023/03/20 03:02:51;;;;;;;6.45;0.90;;;;;;;9.09;69.75;100638.47;5055796;28;20459;-66
2023/03/20 03:05:31;;;;;;;5.28;0.63;;;;;;;9.08;70.07;100647.22;5040522;28;20437;-66
2023/03/20 03:07:59;;;;;;;8.80;1.50;;;;;;;9.07;69.74;100642.81;5036123;28;20029;-66
2023/03/20 03:10:33;;;;;;;4.07;0.50;;;;;;;9.08;69.98;100637.59;5038015;28;20076;-66
2023/03/20 03:13:01;;;;;;;5.38;0.73;;;;;;;9.07;70.15;100643.72;5040051;28;20120;-66
2023/03/20 03:15:52;;;;;;;5.30;0.70;;;;;;;9.06;69.66;100636.72;5039888;28;20034;-66
2023/03/20 03:18:22;;;;;;;6.05;0.70;;;;;;;9.06;69.81;100634.09;5038362;28;20052;-66
2023/03/20 03:20:55;;;;;;;4.03;0.80;;;;;;;9.08;69.57;100639.34;5040939;28;20449;-66
2023/03/20 03:23:34;;;;;;;6.10;0.70;;;;;;;9.09;69.52;100639.38;5049739;28;20119;-66
2023/03/20 03:26:03;;;;;;;4.38;0.60;;;;;;;9.09;69.73;100634.09;5039733;28;20032;-66
2023/03/20 03:29:03;;;;;;;4.30;0.60;;;;;;;9.08;69.79;100636.72;5038163;28;20033;-66
2023/03/20 03:31:31;;;;;;;4.22;0.52;;;;;;;9.05;69.63;100627.06;5030470;28;20064;-66
2023/03/20 03:33:58;;;;;;;5.43;0.65;;;;;;;9.04;69.94;100631.44;5039436;28;20557;-66
2023/03/20 03:36:53;;;;;;;6.33;0.63;;;;;;;9.03;69.83;100634.03;5039472;28;20057;-66
2023/03/20 03:39:37;;;;;;;5.03;0.60;;;;;;;9.02;69.71;100629.66;5039449;28;20116;-66
2023/03/20 03:42:05;;;;;;;4.72;0.50;;;;;;;9.03;69.57;100631.41;5039227;28;20029;-66
2023/03/20 03:44:41;;;;;;;4.25;0.50;;;;;;;9.03;69.52;100623.53;5039140;28;20060;-66
2023/03/20 03:47:15;;;;;;;7.15;0.60;;;;;;;9.03;69.81;100623.53;5039078;28;20090;-66
2023/03/20 03:49:50;;;;;;;4.77;0.60;;;;;;;9.03;69.63;100626.16;5039154;28;20446;-66
2023/03/20 03:52:21;;;;;;;3.97;0.50;;;;;;;9.01;69.49;100627.88;5039094;28;20030;-66
2023/03/20 03:54:54;;;;;;;6.95;0.60;;;;;;;8.99;69.39;100624.38;5038801;28;20056;-66
2023/03/20 03:57:28;;;;;;;3.13;0.60;;;;;;;8.96;69.91;100622.63;5039072;28;20389;-66
2023/03/20 03:59:55;;;;;;;8.10;0.80;;;;;;;8.90;70.04;100617.28;5033987;28;20057;-66
2023/03/20 04:02:22;;;;;;;9.00;1.63;;;;;;;8.82;69.98;100617.25;5057271;28;20021;-66
2023/03/20 04:04:50;;;;;;;5.40;0.60;;;;;;;8.77;69.94;100616.31;5047634;28;20521;-66
2023/03/20 04:07:16;;;;;;;3.63;0.60;;;;;;;8.75;70.08;100628.53;5038796;28;20064;-66
2023/03/20 04:09:41;;;;;;;4.50;0.60;;;;;;;8.76;70.28;100628.56;5038547;28;20041;-66
2023/03/20 04:12:30;;;;;;;6.18;0.70;;;;;;;8.77;70.51;100632.06;5038814;28;20080;-66
2023/03/20 04:14:56;;;;;;;5.07;0.77;;;;;;;8.79;70.14;100632.94;5038883;28;20121;-66
2023/03/20 04:17:21;;;;;;;5.53;0.57;;;;;;;8.83;70.00;100629.50;5043465;28;20056;-66
2023/03/20 04:19:46;;;;;;;7.03;0.77;;;;;;;8.86;69.95;100634.78;5058628;28;20110;-66
2023/03/20 04:22:12;;;;;;;5.50;0.87;;;;;;;8.88;70.13;100630.44;5058127;28;20075;-66
2023/03/20 04:24:37;;;;;;;6.70;0.80;;;;;;;8.88;69.92;100625.19;5045916;28;20493;-66
2023/03/20 04:27:03;;;;;;;2.53;0.45;;;;;;;8.88;70.24;100632.16;5038544;28;20053;-66
2023/03/20 04:29:28;;;;;;;4.17;1.00;;;;;;;8.87;70.22;100635.66;5038533;28;20159;-66
2023/03/20 04:31:55;;;;;;;8.80;1.30;;;;;;;8.85;70.28;100629.50;5037875;28;20036;-66
2023/03/20 04:34:21;;;;;;;6.97;0.93;;;;;;;8.84;70.10;100639.16;5038366;28;20083;-66
2023/03/20 04:36:47;;;;;;;4.22;0.70;;;;;;;8.85;70.45;100634.75;5038187;28;20053;-66
2023/03/20 04:39:13;;;;;;;4.60;0.90;;;;;;;8.84;70.64;100641.78;5038432;28;20806;-66
2023/03/20 04:41:38;;;;;;;5.77;0.80;;;;;;;8.80;70.58;100637.38;5038258;28;20807;-66
2023/03/20 04:44:04;;;;;;;4.63;0.60;;;;;;;8.81;70.74;100635.59;5038131;28;20025;-66
2023/03/20 04:46:29;;;;;;;9.57;0.90;;;;;;;8.84;71.09;100643.50;5040117;28;20025;-66
2023/03/20 04:48:55;;;;;;;4.70;0.53;;;;;;;8.84;70.97;100644.41;5058425;28;20278;-66
2023/03/20 04:51:20;;;;;;;6.93;0.70;;;;;;;8.88;70.87;100646.19;5038788;28;20032;-66
2023/03/20 04:53:46;;;;;;;6.30;0.73;;;;;;;8.95;70.79;100647.13;5037967;28;20064;-66
2023/03/20 04:56:12;;;;;;;4.22;0.60;;;;;;;8.99;70.62;100642.75;5037911;28;20059;-66
2023/03/20 04:58:37;;;;;;;5.13;0.80;;;;;;;9.00;70.68;100644.53;5037911;28;20033;-66
2023/03/20 05:01:03;;;;;;;7.03;0.70;;;;;;;8.97;70.65;100644.50;5054684;28;20501;-66
2023/03/20 05:03:28;;;;;;;8.37;0.93;;;;;;;8.96;70.73;100643.63;5057331;28;20393;-66
2023/03/20 05:05:54;;;;;;;5.40;0.60;;;;;;;8.98;70.99;100641.00;5037966;28;20398;-66
2023/03/20 05:08:19;;;;;;;7.03;1.10;;;;;;;8.97;71.00;100634.88;5037845;28;20084;-66
2023/03/20 05:10:44;;;;;;;5.05;0.90;;;;;;;8.90;71.41;100633.03;5037730;28;20072;-66
2023/03/20 05:13:10;;;;;;;10.23;1.00;;;;;;;8.86;71.58;100637.41;5039378;28;20037;-66
2023/03/20 05:15:36;;;;;;;6.83;1.33;;;;;;;8.83;71.16;100631.25;5054076;28;20032;-66
2023/03/20 05:18:02;;;;;;;6.50;1.48;;;;;;;8.83;71.19;100636.50;5057692;28;20029;-66
2023/03/20 05:20:27;;;;;;;10.67;3.33;;;;;;;8.81;71.04;100633.88;5057621;28;20043;-66
2023/03/20 05:22:53;;;;;;;9.13;2.50;;;;;;;8.85;71.46;100638.28;5057751;28;20024;-66
2023/03/20 05:25:18;;;;;;;7.53;2.10;;;;;;;8.86;71.03;100634.78;5039312;28;20029;-66
2023/03/20 05:27:45;;;;;;;9.90;3.13;;;;;;;8.87;70.96;100638.28;5037921;28;20436;-66
2023/03/20 05:30:11;;;;;;;5.78;1.52;;;;;;;8.90;71.13;100639.19;5037374;28;20049;-66
2023/03/20 05:32:37;;;;;;;4.57;0.90;;;;;;;8.94;70.95;100639.22;5035151;28;20025;-66
2023/03/20 05:35:03;;;;;;;6.22;0.70;;;;;;;8.94;70.76;100639.22;5037491;28;20033;-66
2023/03/20 05:37:29;;;;;;;6.05;1.02;;;;;;;8.95;70.98;100636.63;5037782;28;20025;-66
2023/03/20 05:39:54;;;;;;;3.60;0.70;;;;;;;8.98;71.01;100633.13;5037247;28;20032;-66
2023/03/20 05:42:20;;;;;;;5.17;0.93;;;;;;;9.01;70.87;100641.03;5036048;28;20052;-66
2023/03/20 05:44:45;;;;;;;4.07;0.60;;;;;;;9.04;70.84;100638.41;5037317;28;20029;-66
2023/03/20 05:47:11;;;;;;;6.37;0.73;;;;;;;9.03;70.68;100644.53;5037456;28;20067;-66
2023/03/20 05:49:36;;;;;;;4.73;0.80;;;;;;;9.03;70.68;100648.06;5037147;28;20029;-66
2023/03/20 05:52:01;;;;;;;6.87;0.77;;;;;;;9.02;70.40;100648.94;5037273;28;20025;-66
2023/03/20 05:54:27;;;;;;;4.23;0.70;;;;;;;9.04;70.66;100647.19;5037259;28;20283;-66
2023/03/20 05:56:52;;;;;;;6.10;0.60;;;;;;;9.07;70.66;100645.47;5037057;28;20025;-66
2023/03/20 05:59:17;;;;;;;6.33;0.80;;;;;;;9.10;70.45;100646.38;5039003;28;20436;-66
2023/03/20 06:01:43;;;;;;;5.50;1.00;;;;;;;9.15;70.58;100639.41;5056664;28;20056;-66
2023/03/20 06:04:08;;;;;;;7.87;0.80;;;;;;;9.16;70.36;100646.41;5036921;28;20026;-66
2023/03/20 06:06:36;;;;;;;4.97;0.63;;;;;;;9.19;70.46;100640.31;5037077;28;20060;-66
2023/03/20 06:09:03;;;;;;;3.93;0.80;;;;;;;9.21;70.49;100637.69;5038212;28;20060;-66
2023/03/20 06:11:28;;;;;;;7.63;0.88;;;;;;;9.21;70.41;100638.56;5036788;28;20053;-66
2023/03/20 06:13:54;;;;;;;4.40;1.33;;;;;;;9.23;70.32;100641.19;5036971;28;20033;-66
2023/03/20 06:16:20;;;;;;;4.70;0.70;;;;;;;9.27;70.28;100649.13;5036905;28;20260;-66
2023/03/20 06:18:46;;;;;;;4.97;0.80;;;;;;;9.27;70.33;100643.88;5036611;28;20034;-66
2023/03/20 06:21:11;;;;;;;6.63;0.93;;;;;;;9.27;70.33;100637.72;5045085;28;20481;-66
2023/03/20 06:23:37;;;;;;;5.00;0.80;;;;;;;9.26;70.74;100643.84;5052464;28;20017;-66
2023/03/20 06:26:03;;;;;;;6.13;1.00;;;;;;;9.27;70.28;100643.88;5036470;28;20044;-66
2023/03/20 06:28:29;;;;;;;4.82;0.77;;;;;;;9.31;70.33;100663.19;5036467;28;20559;-66
2023/03/20 06:30:54;;;;;;;6.13;0.90;;;;;;;9.36;70.00;100663.19;5036451;28;20029;-65
2023/03/20 06:33:20;;;;;;;5.43;0.87;;;;;;;9.42;70.28;100665.88;5036388;28;20351;-66
2023/03/20 06:35:47;;;;;;;5.22;0.70;;;;;;;9.46;69.96;100663.28;5036604;28;20444;-66
2023/03/20 06:38:13;;;;;;;5.20;0.98;;;;;;;9.50;70.01;100661.56;5036263;28;20051;-66
2023/03/20 06:40:39;;;;;;;6.65;1.00;;;;;;;9.55;69.92;100669.47;5036255;28;20029;-66
2023/03/20 06:43:04;;;;;;;7.50;1.37;;;;;;;9.60;70.09;100667.75;5046240;28;20036;-66
2023/03/20 06:45:30;;;;;;;6.10;0.80;;;;;;;9.65;69.82;100659.91;5040839;28;20131;-66
2023/03/20 06:47:56;;;;;;;7.07;1.15;;;;;;;9.69;69.84;100665.16;5040513;28;20075;-66
2023/03/20 06:50:21;;;;;;;3.77;0.70;;;;;;;9.71;69.78;100663.44;5040489;28;20029;-66
2023/03/20 06:52:47;;;;;;;8.90;1.02;;;;;;;9.75;69.69;100662.56;5040231;28;20473;-66
2023/03/20 06:55:12;;;;;;;5.67;1.00;;;;;;;9.76;69.69;100659.06;5040661;28;20040;-65
2023/03/20 06:57:38;;;;;;;8.63;1.27;;;;;;;9.79;69.62;100662.63;5040496;28;20030;-66
2023/03/20 07:00:05;;;;;;;7.97;1.15;;;;;;;9.83;69.87;100664.38;5047726;28;20036;-66
2023/03/20 07:02:31;;;;;;;8.55;1.23;;;;;;;9.85;69.54;100675.78;5060107;28;20036;-66
2023/03/20 07:04:56;;;;;;;5.05;1.00;;;;;;;9.90;69.40;100666.16;5047731;28;20080;-65
2023/03/20 07:07:22;;;;;;;7.10;1.27;;;;;;;9.95;69.53;100680.22;5046834;28;20076;-65
2023/03/20 07:09:47;;;;;;;9.93;1.37;;;;;;;9.99;69.82;100670.59;5040273;28;20559;-65
2023/03/20 07:12:14;;;;;;;7.27;1.20;;;;;;;9.99;69.34;100674.09;5039706;28;20524;-65
2023/03/20 07:14:44;;;;;;;7.20;1.00;;;;;;;10.00;69.54;100678.47;5040400;28;20033;-65
2023/03/20 07:17:10;;;;;;;4.63;0.77;;;;;;;10.07;69.51;100679.41;5039901;28;20041;-65
2023/03/20 07:19:36;;;;;;;5.38;0.70;;;;;;;10.12;69.38;100675.03;5038136;28;20394;-65
2023/03/20 07:22:05;;;;;;;5.43;0.80;;;;;;;10.17;69.38;100677.69;5039832;28;20025;-65
2023/03/20 07:24:31;;;;;;;4.35;0.57;;;;;;;10.16;69.30;100670.66;5039445;28;20044;-66
2023/03/20 07:26:57;;;;;;;6.43;0.80;;;;;;;10.19;69.29;100673.31;5041923;28;20029;-66
2023/03/20 07:29:22;;;;;;;4.00;0.50;;;;;;;10.22;68.91;100670.69;5037312;28;20036;-66
2023/03/20 07:31:48;;;;;;;8.05;0.98;;;;;;;10.26;69.21;100672.47;5036792;28;20033;-66
2023/03/20 07:34:13;;;;;;;8.00;0.97;;;;;;;10.29;69.02;100672.50;5039882;28;20055;-66
2023/03/20 07:36:40;;;;;;;3.63;0.70;;;;;;;10.34;69.14;100677.75;5039503;28;20032;-66
2023/03/20 07:39:07;;;;;;;4.25;0.60;;;;;;;10.37;68.93;100672.53;5033689;28;20036;-66
2023/03/20 07:41:32;;;;;;;4.93;0.75;;;;;;;10.42;68.80;100675.19;5071266;28;20040;-66
2023/03/20 07:43:58;;;;;;;3.47;0.67;;;;;;;10.45;68.58;100680.44;5039145;28;20107;-66
2023/03/20 07:46:24;;;;;;;6.63;0.80;;;;;;;10.46;68.62;100677.84;5039220;28;20417;-66
2023/03/20 07:48:50;;;;;;;5.43;0.80;;;;;;;10.56;68.72;100675.22;5039507;28;20026;-66
2023/03/20 07:51:15;;;;;;;7.38;1.02;;;;;;;10.67;68.26;100680.50;5038916;28;20041;-66
2023/03/20 07:53:41;;;;;;;4.23;0.70;;;;;;;10.77;67.85;100683.16;5045089;28;20104;-66
2023/03/20 07:56:06;;;;;;;4.27;0.73;;;;;;;10.88;67.84;100675.28;5040021;28;20473;-66
2023/03/20 07:58:32;;;;;;;8.63;1.08;;;;;;;10.99;67.32;100677.94;5043897;28;20029;-66
2023/03/20 08:00:57;;;;;;;3.40;0.70;;;;;;;11.06;67.22;100684.09;5040905;28;20033;-65
2023/03/20 08:03:23;;;;;;;7.85;1.05;;;;;;;11.15;66.98;100673.53;5052160;28;20029;-66
2023/03/20 08:05:48;;;;;;;4.53;0.80;;;;;;;11.25;66.76;100678.84;5038131;28;20041;-66
2023/03/20 08:08:14;;;;;;;3.90;0.60;;;;;;;11.34;65.93;100684.09;5038291;28;20067;-66
2023/03/20 08:10:40;;;;;;;5.82;0.80;;;;;;;11.42;65.61;100677.03;5042268;28;20053;-66
2023/03/20 08:13:05;;;;;;;5.70;0.80;;;;;;;11.55;65.45;100682.31;5057789;28;20041;-66
2023/03/20 08:15:31;;;;;;;6.00;0.50;;;;;;;11.69;65.01;100685.78;5058157;28;20025;-66
2023/03/20 08:17:57;;;;;;;4.68;0.60;;;;;;;11.86;65.01;100684.88;5040258;28;20104;-66
2023/03/20 08:20:23;;;;;;;4.43;0.70;;;;;;;11.98;64.79;100687.50;5038358;28;20083;-65
2023/03/20 08:22:49;;;;;;;5.30;0.52;;;;;;;12.25;64.25;100679.50;5037236;28;20018;-66
2023/03/20 08:25:15;;;;;;;5.33;0.60;;;;;;;12.47;63.24;100681.16;5040734;28;20032;-66
2023/03/20 08:27:40;;;;;;;4.32;0.50;;;;;;;12.69;63.02;100675.75;5038352;28;20057;-66
2023/03/20 08:30:07;;;;;;;4.67;0.43;;;;;;;12.89;61.98;100678.25;5038005;28;20033;-66
2023/03/20 08:32:33;;;;;;;3.60;0.45;;;;;;;13.17;60.15;100671.88;5037652;28;20569;-66
2023/03/20 08:34:58;;;;;;;3.40;0.40;;;;;;;13.35;59.88;100673.50;5036389;28;20045;-66
2023/03/20 08:37:24;;;;;;;2.50;0.37;;;;;;;13.61;59.22;100672.41;5038670;28;20048;-66
2023/03/20 08:39:49;;;;;;;5.15;0.50;;;;;;;14.00;57.75;100666.72;5036858;28;20029;-66
2023/03/20 08:42:14;;;;;;;5.90;0.80;;;;;;;14.18;57.42;100655.88;5038162;28;20057;-66
2023/03/20 08:44:40;;;;;;;1.77;0.30;;;;;;;14.27;57.13;100654.88;5037727;28;20116;-66
2023/03/20 08:47:06;;;;;;;2.70;0.38;;;;;;;14.42;57.08;100651.13;5036906;28;20084;-66
2023/03/20 08:49:33;;;;;;;2.73;0.20;;;;;;;14.56;55.28;100648.28;5038059;28;20025;-66
2023/03/20 08:51:59;;;;;;;3.65;0.30;;;;;;;14.39;55.08;100656.50;5038139;28;20033;-66
2023/03/20 08:54:24;;;;;;;3.97;0.30;;;;;;;14.17;53.97;100651.47;5037551;28;20432;-66
2023/03/20 08:56:50;;;;;;;2.67;0.30;;;;;;;13.81;54.71;100656.34;5038226;28;20100;-66
2023/03/20 08:59:15;;;;;;;2.50;0.35;;;;;;;13.84;55.59;100658.03;5041155;28;20124;-66
2023/03/20 09:01:41;;;;;;;2.27;0.40;;;;;;;14.04;54.44;100653.41;5057917;28;20033;-66
2023/03/20 09:04:06;;;;;;;3.47;0.50;;;;;;;14.18;52.47;100652.38;5051686;28;20029;-66
2023/03/20 09:06:35;;;;;;;2.43;0.37;;;;;;;14.27;53.39;100660.19;5036928;28;20105;-66
2023/03/20 09:09:01;;;;;;;2.70;0.30;;;;;;;14.47;52.96;100651.97;5037245;28;20025;-66
2023/03/20 09:11:26;;;;;;;3.83;0.30;;;;;;;14.69;53.17;100640.19;5037264;28;20561;-66
2023/03/20 09:13:51;;;;;;;3.25;0.40;;;;;;;14.98;52.88;100630.91;5037292;28;20396;-66
2023/03/20 09:16:17;;;;;;;2.93;0.40;;;;;;;15.23;51.56;100631.38;5037575;28;20063;-66
2023/03/20 09:18:42;;;;;;;3.37;0.30;;;;;;;15.39;52.05;100629.34;5037574;28;20095;-66
2023/03/20 09:21:07;;;;;;;2.83;0.40;;;;;;;15.60;51.63;100638.66;5037526;28;20025;-66
2023/03/20 09:23:33;;;;;;;4.30;0.40;;;;;;;15.73;51.12;100639.28;5036847;28;20067;-67
2023/03/20 09:25:59;;;;;;;2.65;0.40;;;;;;;15.84;50.82;100635.56;5037119;28;20025;-67
2023/03/20 09:28:25;;;;;;;2.20;0.30;;;;;;;15.95;50.98;100632.75;5035622;28;20040;-67
2023/03/20 09:30:55;;;;;;;3.15;0.40;;;;;;;16.09;50.55;100627.13;5037225;28;20025;-66
2023/03/20 09:33:20;;;;;;;3.50;0.43;;;;;;;16.28;50.10;100636.47;5036656;28;20040;-67
2023/03/20 09:35:46;;;;;;;2.40;0.40;;;;;;;16.41;49.19;100628.19;5036490;28;20029;-64
2023/03/20 09:38:12;;;;;;;2.50;0.50;;;;;;;16.38;49.19;100625.63;5036659;28;20037;-64
2023/03/20 09:40:57;;;;;;;4.13;0.50;;;;;;;16.30;48.26;100629.34;5037118;28;20029;-65
2023/03/20 09:43:42;;;;;;;2.50;0.30;;;;;;;16.32;48.12;100627.50;5035774;28;20504;-65
2023/03/20 09:46:32;;;;;;;3.78;0.60;;;;;;;16.25;48.20;100627.69;5036138;28;20164;-65
2023/03/20 09:49:45;;;;;;;3.20;0.40;;;;;;;16.29;48.40;100621.38;5036934;28;20034;-64
2023/03/20 09:52:19;;;;;;;3.50;0.40;;;;;;;16.53;48.71;100612.00;5026816;28;20042;-64
2023/03/20 09:54:50;;;;;;;3.95;0.50;;;;;;;16.69;46.00;100611.59;5041462;28;20091;-65
2023/03/20 09:57:21;;;;;;;3.05;0.40;;;;;;;16.71;47.54;100604.47;5049440;28;20029;-65
2023/03/20 09:59:47;;;;;;;3.80;0.40;;;;;;;16.80;46.20;100601.59;5041484;28;20040;-64
2023/03/20 10:02:23;;;;;;;2.30;0.40;;;;;;;16.48;46.44;100600.56;5046916;28;20105;-65
2023/03/20 10:04:53;;;;;;;3.93;0.50;;;;;;;16.60;46.83;100599.41;5027962;28;20037;-64
2023/03/20 10:07:19;;;;;;;5.18;1.20;;;;;;;16.73;46.59;100594.66;5036682;28;20033;-64
2023/03/20 10:09:44;;;;;;;3.70;0.40;;;;;;;16.46;46.36;100597.06;5036430;28;20061;-64
2023/03/20 10:12:31;;;;;;;2.23;0.33;;;;;;;16.56;46.18;100595.06;5036687;28;20025;-64
2023/03/20 10:15:23;;;;;;;3.85;0.50;;;;;;;16.81;46.47;100591.81;5036325;28;20026;-64
2023/03/20 10:18:10;;;;;;;4.20;0.50;;;;;;;17.01;45.72;100588.72;5036370;28;20033;-65
2023/03/20 10:21:05;;;;;;;1.90;0.30;;;;;;;17.30;46.17;100581.75;5036395;28;20030;-64
2023/03/20 10:24:01;;;;;;;3.10;0.50;;;;;;;17.61;45.59;100584.44;5036287;28;20437;-65
2023/03/20 10:26:27;;;;;;;3.22;0.40;;;;;;;17.89;45.31;100577.41;5036139;28;20028;-64
2023/03/20 10:29:12;;;;;;;3.80;0.50;;;;;;;18.13;45.03;100570.53;5036720;28;20087;-65
2023/03/20 10:31:43;;;;;;;3.13;0.47;;;;;;;18.34;44.47;100562.78;5037204;28;20025;-64
2023/03/20 10:34:39;;;;;;;3.58;0.30;;;;;;;18.51;43.57;100564.91;5040990;28;20033;-65
2023/03/20 10:37:45;;;;;;;4.20;0.40;;;;;;;18.42;41.14;100565.16;5036154;28;20048;-64
2023/03/20 10:40:31;;;;;;;3.40;0.50;;;;;;;18.23;42.36;100565.78;5036672;28;20021;-64
2023/03/20 10:43:29;;;;;;;5.22;0.63;;;;;;;18.17;43.25;100560.63;5035895;28;20026;-65
2023/03/20 10:46:02;;;;;;;2.97;0.40;;;;;;;18.44;43.16;100560.66;5034640;28;20524;-65
2023/03/20 10:48:37;;;;;;;2.88;0.50;;;;;;;18.63;42.76;100564.47;5036133;28;20113;-65
2023/03/20 10:51:03;;;;;;;3.10;0.50;;;;;;;18.86;42.40;100552.16;5038706;28;20025;-65
2023/03/20 10:53:40;;;;;;;3.00;0.43;;;;;;;18.89;41.83;100549.38;5056151;28;20428;-65
2023/03/20 10:56:10;;;;;;;2.58;0.43;;;;;;;18.96;41.77;100544.72;5036355;28;20049;-65
2023/03/20 10:58:43;;;;;;;2.92;0.50;;;;;;;19.03;42.02;100548.94;5036123;28;20053;-65
2023/03/20 11:01:08;;;;;;;4.90;0.45;;;;;;;19.20;41.35;100543.03;5053206;28;20024;-65
2023/03/20 11:03:38;;;;;;;3.87;0.50;;;;;;;19.24;40.93;100542.91;5050494;28;20037;-66
2023/03/20 11:06:18;;;;;;;2.85;0.50;;;;;;;19.24;41.07;100537.59;5033221;28;20057;-66
2023/03/20 11:08:48;;;;;;;3.60;0.40;;;;;;;19.33;41.22;100534.56;5035874;28;20405;-66
2023/03/20 11:11:21;;;;;;;3.40;0.50;;;;;;;19.32;40.83;100540.84;5034483;28;20042;-65
2023/03/20 11:13:48;;;;;;;3.97;0.50;;;;;;;19.35;40.70;100530.03;5036156;28;20413;-66
2023/03/20 11:16:19;;;;;;;3.97;0.63;;;;;;;19.34;40.51;100529.19;5035931;28;20072;-66
2023/03/20 11:18:48;;;;;;;2.97;0.50;;;;;;;19.49;40.32;100527.75;5036029;28;20044;-66
2023/03/20 11:21:30;;;;;;;4.83;0.63;;;;;;;19.56;39.95;100516.81;5035066;28;20367;-66
2023/03/20 11:23:55;;;;;;;3.20;0.50;;;;;;;19.65;40.15;100513.78;5035758;28;20501;-65
2023/03/20 11:26:32;;;;;;;4.57;0.50;;;;;;;19.75;39.73;100512.53;5035870;28;20377;-65
2023/03/20 11:28:59;;;;;;;2.57;0.60;;;;;;;19.99;39.94;100496.50;5034614;28;20034;-66
2023/03/20 11:31:33;;;;;;;4.13;0.70;;;;;;;20.08;39.41;100493.44;5037768;28;20033;-66
2023/03/20 11:34:10;;;;;;;4.20;0.52;;;;;;;20.12;38.70;100483.50;5039645;28;20034;-66
2023/03/20 11:36:38;;;;;;;4.63;0.63;;;;;;;20.11;38.41;100480.88;5039194;28;20096;-65
2023/03/20 11:39:11;;;;;;;2.75;0.57;;;;;;;19.97;38.53;100476.97;5039776;28;20026;-66
2023/03/20 11:41:51;;;;;;;6.30;0.67;;;;;;;19.86;38.25;100476.50;5039440;28;20071;-66
2023/03/20 11:44:25;;;;;;;3.47;0.60;;;;;;;19.91;38.96;100472.75;5039349;28;20033;-66